Santa Fe, Illinois
Current Conditions -  °F | °C
As of 11:35 PM on Wednesday 22 Oct 2014 (Local Time) from KENL Reporting Station
Clear Clear  
Wind Chill: 39°   Ceiling: Unl
Heat Index: 39°   Visibility: 7mi
Dew Point: 37°   Wind: 0mph
Humidity: 91%   Direction: NA
Pressure: 30.26"   Gusts: NA
Location:  38.5271°N, 89.4497°W
Report Text: KENL 230435Z AUTO 00000KT 7SM CLR 04/03 A3026 RMK AO2 T00380025
Loading
Personal Weather Stations






























Interactive Weather Map
Tropical Storm Tracking
New forecast layout! Learn more

10-Day Weather Forecast

Advertisements
Track Severe Weather on mobile